QTR8806 LIMC-KORD
Flight info
| Callsign | QTR8806 |
|---|---|
| Flight time | N/A |
| Altitude | 32000 |
| Route | AOSTA DCT ORSUD DCT MOLUS DCT IBODI DCT GOTED DCT TRO DCT CLM DCT KOPOR DCT VESAN DCT RATUK DCT SOVAT DCT OKSAW DCT TEWXI DCT VATRY DCT KOMER DCT TORLU/N0474F340 DCT DOGAL/M083F340 NATC NEEKO/N0484F360 DCT ANCER DCT OXASA DCT NOTAP DCT ODAXY WYNDE3 |
| Aircraft | B77L/H-SDE1E2E3FGHIJ2J3J4J5M1RWXY/LB1D1 |
Departure
| Time | 2026-05-04 09:04 |
|---|---|
| Airport | Milan Malpensa International Airport (LIMC) |
Arrival
| Time | N/A |
|---|---|
| Airport | Chicago O'Hare International Airport (KORD) |
| Time | Latitude | Longitude | Altitude | Speed | Heading |
|---|---|---|---|---|---|
| 2026-05-04 08:35 | 45.60942 | 8.72042 | 741 ft | 0 kts | 259° |
| 2026-05-04 08:51 | 45.60944 | 8.72057 | 738 ft | 4 kts | 259° |
| 2026-05-04 08:51 | 45.60949 | 8.72095 | 741 ft | 4 kts | 259° |
| 2026-05-04 08:52 | 45.60954 | 8.72128 | 741 ft | 4 kts | 251° |
| 2026-05-04 08:52 | 45.60964 | 8.72154 | 741 ft | 4 kts | 210° |
| 2026-05-04 08:52 | 45.60984 | 8.72162 | 741 ft | 4 kts | 173° |
| 2026-05-04 08:52 | 45.61008 | 8.72156 | 741 ft | 1 kts | 169° |
| 2026-05-04 08:53 | 45.61012 | 8.72155 | 741 ft | 0 kts | 169° |
| 2026-05-04 08:57 | 45.60640 | 8.72392 | 738 ft | 14 kts | 85° |
| 2026-05-04 09:01 | 45.61524 | 8.73233 | 741 ft | 16 kts | 349° |
| 2026-05-04 09:01 | 45.61606 | 8.73245 | 741 ft | 13 kts | 51° |
| 2026-05-04 09:01 | 45.61628 | 8.73365 | 741 ft | 12 kts | 81° |
| 2026-05-04 09:01 | 45.61611 | 8.73481 | 739 ft | 12 kts | 119° |
| 2026-05-04 09:02 | 45.61585 | 8.73599 | 741 ft | 12 kts | 89° |
| 2026-05-04 09:02 | 45.61602 | 8.73711 | 738 ft | 9 kts | 69° |
| 2026-05-04 09:02 | 45.61653 | 8.73728 | 738 ft | 8 kts | 349° |
| 2026-05-04 09:02 | 45.61722 | 8.73709 | 740 ft | 18 kts | 349° |
| 2026-05-04 09:03 | 45.62034 | 8.73623 | 739 ft | 82 kts | 348° |
| 2026-05-04 09:03 | 45.62832 | 8.73403 | 740 ft | 149 kts | 349° |
| 2026-05-04 09:03 | 45.64037 | 8.73067 | 793 ft | 195 kts | 348° |
| 2026-05-04 09:03 | 45.65358 | 8.72718 | 1361 ft | 195 kts | 349° |
| 2026-05-04 09:04 | 45.66733 | 8.72598 | 1961 ft | 199 kts | 359° |
| 2026-05-04 09:04 | 45.68126 | 8.72613 | 2569 ft | 201 kts | 359° |
| 2026-05-04 09:04 | 45.69555 | 8.72603 | 3044 ft | 208 kts | 359° |
| 2026-05-04 09:04 | 45.71009 | 8.72566 | 3501 ft | 213 kts | 355° |
| 2026-05-04 09:05 | 45.72445 | 8.71968 | 3870 ft | 221 kts | 324° |
| 2026-05-04 09:05 | 45.73413 | 8.70224 | 4172 ft | 231 kts | 285° |
| 2026-05-04 09:05 | 45.73440 | 8.67952 | 4587 ft | 229 kts | 252° |
| 2026-05-04 09:05 | 45.72916 | 8.65807 | 5094 ft | 232 kts | 248° |
| 2026-05-04 09:06 | 45.72344 | 8.63617 | 5651 ft | 238 kts | 249° |
| 2026-05-04 09:07 | 45.65979 | 8.47728 | 9542 ft | 285 kts | 236° |
| 2026-05-04 09:08 | 45.64907 | 8.45325 | 10212 ft | 287 kts | 236° |
| 2026-05-04 09:08 | 45.63818 | 8.42887 | 10700 ft | 300 kts | 236° |
| 2026-05-04 09:08 | 45.62644 | 8.40280 | 10872 ft | 321 kts | 233° |
| 2026-05-04 09:08 | 45.61226 | 8.37689 | 11053 ft | 341 kts | 228° |
| 2026-05-04 09:09 | 45.59657 | 8.35078 | 11339 ft | 356 kts | 230° |
| 2026-05-04 09:09 | 45.58508 | 8.31868 | 11742 ft | 372 kts | 254° |
| 2026-05-04 09:09 | 45.58333 | 8.28144 | 12481 ft | 381 kts | 274° |
| 2026-05-04 09:09 | 45.59014 | 8.24456 | 13216 ft | 386 kts | 286° |
| 2026-05-04 09:10 | 45.59894 | 8.20844 | 13838 ft | 393 kts | 287° |
| 2026-05-04 09:10 | 45.60795 | 8.17136 | 14596 ft | 395 kts | 286° |
| 2026-05-04 09:10 | 45.61696 | 8.13425 | 15165 ft | 397 kts | 286° |
| 2026-05-04 09:10 | 45.62577 | 8.09646 | 15719 ft | 404 kts | 285° |
| 2026-05-04 09:11 | 45.63454 | 8.05816 | 16427 ft | 406 kts | 285° |
| 2026-05-04 09:11 | 45.64340 | 8.01974 | 17167 ft | 408 kts | 286° |
| 2026-05-04 09:11 | 45.65226 | 7.98155 | 17780 ft | 411 kts | 286° |
| 2026-05-04 09:11 | 45.66124 | 7.94254 | 18384 ft | 414 kts | 285° |
| 2026-05-04 09:12 | 45.67025 | 7.90317 | 18999 ft | 418 kts | 285° |
| 2026-05-04 09:12 | 45.67931 | 7.86352 | 19621 ft | 421 kts | 285° |
| 2026-05-04 09:14 | 45.74399 | 7.57820 | 23593 ft | 440 kts | 285° |
| 2026-05-04 09:14 | 45.75342 | 7.53622 | 24101 ft | 443 kts | 285° |
| 2026-05-04 09:14 | 45.76289 | 7.49409 | 24586 ft | 446 kts | 285° |
| 2026-05-04 09:14 | 45.77243 | 7.45165 | 25067 ft | 449 kts | 285° |
| 2026-05-04 09:15 | 45.78203 | 7.40874 | 25509 ft | 453 kts | 285° |
| 2026-05-04 09:15 | 45.79317 | 7.36642 | 25819 ft | 459 kts | 295° |
| 2026-05-04 09:15 | 45.81190 | 7.32930 | 26087 ft | 472 kts | 313° |
| 2026-05-04 09:15 | 45.83804 | 7.30038 | 26518 ft | 476 kts | 324° |
| 2026-05-04 09:17 | 46.05957 | 7.07783 | 29452 ft | 495 kts | 321° |
| 2026-05-04 09:18 | 46.08757 | 7.04903 | 29874 ft | 494 kts | 321° |
| 2026-05-04 09:18 | 46.11556 | 7.02022 | 30347 ft | 492 kts | 321° |
| 2026-05-04 09:18 | 46.14317 | 6.99175 | 30808 ft | 490 kts | 321° |
| 2026-05-04 09:18 | 46.17086 | 6.96315 | 31228 ft | 489 kts | 321° |
| 2026-05-04 09:19 | 46.19862 | 6.93446 | 31563 ft | 489 kts | 320° |
| 2026-05-04 09:19 | 46.22630 | 6.90579 | 31920 ft | 488 kts | 320° |
| 2026-05-04 09:19 | 46.28161 | 6.84836 | 32031 ft | 489 kts | 320° |
| 2026-05-04 09:20 | 46.33667 | 6.79111 | 32025 ft | 489 kts | 320° |
| 2026-05-04 09:20 | 46.39190 | 6.73349 | 32027 ft | 488 kts | 320° |
| 2026-05-04 09:21 | 46.44380 | 6.67756 | 32013 ft | 486 kts | 316° |
| 2026-05-04 09:21 | 46.48399 | 6.62096 | 32037 ft | 482 kts | 309° |
| 2026-05-04 09:22 | 46.53761 | 6.53850 | 32041 ft | 483 kts | 309° |
| 2026-05-04 09:22 | 46.57608 | 6.47954 | 32036 ft | 483 kts | 309° |
| 2026-05-04 09:23 | 46.62262 | 6.40870 | 32036 ft | 483 kts | 309° |
| 2026-05-04 09:23 | 46.66908 | 6.33804 | 32037 ft | 483 kts | 309° |
| 2026-05-04 09:25 | 46.85421 | 6.05426 | 32049 ft | 482 kts | 309° |
| 2026-05-04 09:26 | 46.90033 | 5.98308 | 32044 ft | 482 kts | 309° |
| 2026-05-04 09:26 | 46.94862 | 5.91424 | 32046 ft | 490 kts | 317° |
| 2026-05-04 09:27 | 47.00518 | 5.85871 | 32044 ft | 497 kts | 328° |
| 2026-05-04 09:27 | 47.06656 | 5.81210 | 32051 ft | 497 kts | 329° |
| 2026-05-04 09:28 | 47.12811 | 5.76577 | 32047 ft | 496 kts | 328° |
| 2026-05-04 09:28 | 47.18931 | 5.71885 | 32045 ft | 496 kts | 328° |
| 2026-05-04 09:29 | 47.25038 | 5.67149 | 32046 ft | 496 kts | 328° |
| 2026-05-04 09:29 | 47.31130 | 5.62409 | 32053 ft | 495 kts | 328° |
| 2026-05-04 09:30 | 47.37230 | 5.57654 | 32048 ft | 496 kts | 328° |
| 2026-05-04 09:30 | 47.43330 | 5.52890 | 32046 ft | 496 kts | 328° |
| 2026-05-04 09:31 | 47.49371 | 5.47992 | 32042 ft | 492 kts | 322° |
| 2026-05-04 09:31 | 47.54497 | 5.41550 | 32053 ft | 483 kts | 308° |
| 2026-05-04 09:32 | 47.58592 | 5.33740 | 32057 ft | 478 kts | 301° |
| 2026-05-04 09:34 | 47.74276 | 5.01729 | 32039 ft | 480 kts | 301° |
| 2026-05-04 09:34 | 47.78201 | 4.93735 | 32031 ft | 481 kts | 301° |
| 2026-05-04 09:35 | 47.82149 | 4.85668 | 32025 ft | 482 kts | 301° |
| 2026-05-04 09:35 | 47.86102 | 4.77569 | 32028 ft | 482 kts | 301° |
| 2026-05-04 09:37 | 48.01833 | 4.45075 | 32027 ft | 485 kts | 300° |
| 2026-05-04 09:38 | 48.05748 | 4.36932 | 32022 ft | 483 kts | 300° |
| 2026-05-04 09:38 | 48.09673 | 4.28744 | 32028 ft | 485 kts | 300° |
| 2026-05-04 09:39 | 48.13604 | 4.20514 | 32016 ft | 485 kts | 300° |
| 2026-05-04 09:39 | 48.17503 | 4.12326 | 32021 ft | 485 kts | 300° |
| 2026-05-04 09:40 | 48.21416 | 4.04088 | 32019 ft | 485 kts | 300° |
| 2026-05-04 09:40 | 48.25384 | 3.95881 | 32016 ft | 488 kts | 303° |
| 2026-05-04 09:42 | 48.44233 | 3.66125 | 32018 ft | 492 kts | 308° |
| 2026-05-04 09:43 | 48.48950 | 3.58623 | 32011 ft | 491 kts | 308° |
| 2026-05-04 09:43 | 48.53652 | 3.51122 | 32007 ft | 491 kts | 308° |
| 2026-05-04 09:44 | 48.58328 | 3.43649 | 32009 ft | 491 kts | 308° |
| 2026-05-04 09:46 | 48.77071 | 3.13462 | 31997 ft | 492 kts | 308° |
| 2026-05-04 09:46 | 48.81755 | 3.05894 | 31982 ft | 493 kts | 309° |
| 2026-05-04 09:47 | 48.87033 | 2.99165 | 31995 ft | 502 kts | 321° |
| 2026-05-04 09:49 | 49.11402 | 2.77790 | 31996 ft | 505 kts | 325° |
| 2026-05-04 09:51 | 49.32643 | 2.58918 | 31992 ft | 504 kts | 325° |
| 2026-05-04 09:51 | 49.38678 | 2.53524 | 31999 ft | 505 kts | 325° |
| 2026-05-04 09:52 | 49.44749 | 2.48083 | 31992 ft | 504 kts | 325° |
| 2026-05-04 09:52 | 49.50857 | 2.42863 | 31987 ft | 507 kts | 331° |
| 2026-05-04 09:53 | 49.57516 | 2.39121 | 31999 ft | 511 kts | 340° |
| 2026-05-04 09:53 | 49.64388 | 2.36109 | 31987 ft | 511 kts | 341° |
| 2026-05-04 09:54 | 49.71201 | 2.33104 | 31998 ft | 511 kts | 340° |
| 2026-05-04 09:54 | 49.78007 | 2.30018 | 32000 ft | 511 kts | 340° |
| 2026-05-04 09:55 | 49.84847 | 2.26880 | 31999 ft | 511 kts | 340° |
| 2026-05-04 09:55 | 49.91633 | 2.23761 | 32000 ft | 511 kts | 340° |
| 2026-05-04 09:56 | 49.98472 | 2.20609 | 32001 ft | 512 kts | 340° |
| 2026-05-04 09:56 | 50.05256 | 2.17479 | 31991 ft | 511 kts | 340° |
| 2026-05-04 09:57 | 50.12072 | 2.14323 | 32003 ft | 511 kts | 340° |
| 2026-05-04 09:57 | 50.18899 | 2.11150 | 31997 ft | 511 kts | 340° |
| 2026-05-04 09:58 | 50.25716 | 2.07975 | 32004 ft | 510 kts | 340° |
| 2026-05-04 09:58 | 50.32472 | 2.04773 | 32012 ft | 509 kts | 336° |
| 2026-05-04 10:00 | 50.51914 | 1.82559 | 32016 ft | 493 kts | 314° |
| 2026-05-04 10:00 | 50.54467 | 1.79042 | 32018 ft | 492 kts | 314° |
| 2026-05-04 10:04 | 50.85063 | 1.23862 | 32019 ft | 470 kts | 290° |
| 2026-05-04 10:04 | 50.87891 | 1.14575 | 32019 ft | 470 kts | 291° |
| 2026-05-04 10:05 | 50.90741 | 1.05283 | 32019 ft | 470 kts | 291° |
| 2026-05-04 10:05 | 50.93610 | 0.95949 | 32018 ft | 470 kts | 291° |
| 2026-05-04 10:06 | 50.96451 | 0.86669 | 32018 ft | 470 kts | 291° |
| 2026-05-04 10:06 | 50.99299 | 0.77326 | 32019 ft | 469 kts | 291° |
| 2026-05-04 10:08 | 51.09189 | 0.44600 | 32025 ft | 469 kts | 291° |
| 2026-05-04 10:08 | 51.12000 | 0.35204 | 32029 ft | 469 kts | 291° |
| 2026-05-04 10:09 | 51.14785 | 0.25873 | 32034 ft | 468 kts | 291° |
| 2026-05-04 10:09 | 51.17574 | 0.16499 | 32039 ft | 468 kts | 291° |
| 2026-05-04 10:10 | 51.19890 | 0.08678 | 32036 ft | 468 kts | 291° |
| 2026-05-04 10:10 | 51.22647 | -0.00668 | 32036 ft | 467 kts | 291° |
| 2026-05-04 10:11 | 51.25417 | -0.10085 | 32033 ft | 472 kts | 291° |
| 2026-05-04 10:11 | 51.28236 | -0.19720 | 32047 ft | 481 kts | 291° |
| 2026-05-04 10:12 | 51.31047 | -0.29357 | 32032 ft | 480 kts | 291° |
| 2026-05-04 10:12 | 51.33862 | -0.39038 | 32038 ft | 478 kts | 291° |
| 2026-05-04 10:13 | 51.36659 | -0.48712 | 32038 ft | 478 kts | 291° |
| 2026-05-04 10:13 | 51.39433 | -0.58347 | 32036 ft | 479 kts | 291° |
| 2026-05-04 10:14 | 51.42215 | -0.68042 | 32036 ft | 478 kts | 291° |
| 2026-05-04 10:16 | 51.53235 | -1.06847 | 32022 ft | 478 kts | 292° |
| 2026-05-04 10:16 | 51.55974 | -1.16589 | 32018 ft | 477 kts | 292° |
| 2026-05-04 10:17 | 51.58686 | -1.26285 | 32027 ft | 477 kts | 292° |
| 2026-05-04 10:19 | 51.69486 | -1.65263 | 32045 ft | 477 kts | 292° |
| 2026-05-04 10:19 | 51.72274 | -1.74983 | 32044 ft | 477 kts | 295° |
| 2026-05-04 10:20 | 51.75288 | -1.84462 | 32037 ft | 477 kts | 296° |
| 2026-05-04 10:20 | 51.78277 | -1.94017 | 32038 ft | 476 kts | 295° |
| 2026-05-04 10:21 | 51.81202 | -2.03638 | 32042 ft | 476 kts | 292° |
| 2026-05-04 10:21 | 51.83603 | -2.13618 | 32055 ft | 476 kts | 289° |
| 2026-05-04 10:22 | 51.86986 | -2.28670 | 32044 ft | 476 kts | 289° |
| 2026-05-04 10:23 | 51.89272 | -2.38737 | 32047 ft | 476 kts | 289° |
| 2026-05-04 10:25 | 51.98425 | -2.79078 | 32046 ft | 479 kts | 289° |
| 2026-05-04 10:25 | 52.00706 | -2.89273 | 32042 ft | 480 kts | 289° |
| 2026-05-04 10:26 | 52.02980 | -2.99466 | 32034 ft | 483 kts | 289° |
| 2026-05-04 10:26 | 52.05273 | -3.09808 | 32038 ft | 488 kts | 290° |
| 2026-05-04 10:27 | 52.07548 | -3.20113 | 32032 ft | 485 kts | 291° |
| 2026-05-04 10:27 | 52.09815 | -3.30444 | 32034 ft | 485 kts | 291° |
| 2026-05-04 10:28 | 52.12082 | -3.40816 | 32040 ft | 486 kts | 291° |
| 2026-05-04 10:28 | 52.14331 | -3.51153 | 32034 ft | 487 kts | 291° |
| 2026-05-04 10:29 | 52.16586 | -3.61578 | 32035 ft | 487 kts | 290° |
| 2026-05-04 10:29 | 52.18834 | -3.72020 | 32035 ft | 488 kts | 290° |
| 2026-05-04 10:30 | 52.21073 | -3.82464 | 32036 ft | 488 kts | 290° |
| 2026-05-04 10:30 | 52.23289 | -3.92871 | 32037 ft | 488 kts | 290° |
| 2026-05-04 10:31 | 52.25511 | -4.03357 | 32033 ft | 488 kts | 290° |
| 2026-05-04 10:32 | 52.33214 | -4.40121 | 32048 ft | 490 kts | 290° |
| 2026-05-04 10:33 | 52.35406 | -4.50711 | 32045 ft | 491 kts | 290° |
| 2026-05-04 10:33 | 52.37574 | -4.61235 | 32046 ft | 490 kts | 290° |
| 2026-05-04 10:34 | 52.39753 | -4.71870 | 32046 ft | 492 kts | 291° |
| 2026-05-04 10:34 | 52.41911 | -4.82455 | 32053 ft | 492 kts | 291° |
| 2026-05-04 10:35 | 52.44073 | -4.93129 | 32055 ft | 494 kts | 291° |
| 2026-05-04 10:35 | 52.46219 | -5.03786 | 32053 ft | 495 kts | 291° |
| 2026-05-04 10:36 | 52.48375 | -5.14542 | 32062 ft | 496 kts | 291° |
| 2026-05-04 10:36 | 52.50525 | -5.25318 | 32066 ft | 497 kts | 291° |
| 2026-05-04 10:37 | 52.52666 | -5.36117 | 32062 ft | 498 kts | 291° |
| 2026-05-04 10:37 | 52.54800 | -5.46929 | 32306 ft | 503 kts | 291° |
| 2026-05-04 10:39 | 52.61947 | -5.78910 | 34045 ft | 494 kts | 294° |
| 2026-05-04 10:39 | 52.63159 | -5.84234 | 34071 ft | 494 kts | 293° |
| 2026-05-04 10:40 | 52.65533 | -5.94801 | 34066 ft | 494 kts | 293° |
| 2026-05-04 10:40 | 52.67901 | -6.05445 | 34077 ft | 494 kts | 293° |
| 2026-05-04 10:41 | 52.70260 | -6.16070 | 34073 ft | 495 kts | 293° |
| 2026-05-04 10:41 | 52.72627 | -6.26785 | 34073 ft | 494 kts | 293° |
| 2026-05-04 10:42 | 52.74970 | -6.37460 | 34072 ft | 494 kts | 293° |
| 2026-05-04 10:42 | 52.77290 | -6.48084 | 34077 ft | 494 kts | 293° |
| 2026-05-04 10:43 | 52.79618 | -6.58787 | 34077 ft | 494 kts | 293° |
| 2026-05-04 10:45 | 52.88427 | -7.01796 | 34072 ft | 496 kts | 290° |
| 2026-05-04 10:45 | 52.90430 | -7.12758 | 34076 ft | 496 kts | 291° |
| 2026-05-04 10:46 | 52.92459 | -7.23736 | 34072 ft | 495 kts | 291° |
| 2026-05-04 10:46 | 52.94465 | -7.34589 | 34080 ft | 495 kts | 291° |
| 2026-05-04 10:47 | 52.96479 | -7.45561 | 34088 ft | 496 kts | 291° |
| 2026-05-04 10:47 | 52.98470 | -7.56469 | 34082 ft | 496 kts | 290° |
| 2026-05-04 10:49 | 53.05949 | -8.00553 | 34090 ft | 496 kts | 289° |
| 2026-05-04 10:50 | 53.07797 | -8.11643 | 34091 ft | 496 kts | 289° |
| 2026-05-04 10:52 | 53.15065 | -8.55956 | 34105 ft | 496 kts | 289° |
| 2026-05-04 10:52 | 53.16859 | -8.67079 | 34101 ft | 496 kts | 289° |
| 2026-05-04 10:54 | 53.23919 | -9.11585 | 34101 ft | 496 kts | 288° |
| 2026-05-04 10:56 | 53.30513 | -9.54276 | 34100 ft | 495 kts | 288° |
| 2026-05-04 10:57 | 53.32210 | -9.65440 | 34102 ft | 494 kts | 288° |
| 2026-05-04 10:57 | 53.33882 | -9.76527 | 34101 ft | 493 kts | 288° |
| 2026-05-04 10:58 | 53.35555 | -9.87686 | 34100 ft | 493 kts | 287° |
| 2026-05-04 10:58 | 53.37207 | -9.98783 | 34101 ft | 492 kts | 287° |
| 2026-05-04 10:59 | 53.38852 | -10.09909 | 34102 ft | 491 kts | 287° |
| 2026-05-04 10:59 | 53.40482 | -10.21011 | 34104 ft | 491 kts | 287° |
| 2026-05-04 11:00 | 53.42108 | -10.32181 | 34101 ft | 492 kts | 287° |
| 2026-05-04 11:02 | 53.48478 | -10.76738 | 34098 ft | 492 kts | 286° |
| 2026-05-04 11:05 | 53.59948 | -11.60343 | 34102 ft | 485 kts | 285° |
| 2026-05-04 11:06 | 53.61421 | -11.71453 | 34103 ft | 484 kts | 285° |
| 2026-05-04 11:06 | 53.62869 | -11.82435 | 34099 ft | 482 kts | 285° |
| 2026-05-04 11:10 | 53.72734 | -12.59683 | 34103 ft | 482 kts | 284° |
| 2026-05-04 11:12 | 53.78161 | -13.04069 | 34101 ft | 482 kts | 283° |
| 2026-05-04 11:12 | 53.79485 | -13.15134 | 34101 ft | 481 kts | 283° |
| 2026-05-04 11:13 | 53.80803 | -13.26229 | 34102 ft | 480 kts | 283° |
| 2026-05-04 11:13 | 53.82107 | -13.37315 | 34100 ft | 479 kts | 283° |
| 2026-05-04 11:14 | 53.83390 | -13.48300 | 34103 ft | 478 kts | 283° |
| 2026-05-04 11:16 | 53.88418 | -13.92300 | 34102 ft | 474 kts | 282° |
| 2026-05-04 11:16 | 53.89642 | -14.03230 | 34102 ft | 473 kts | 282° |
| 2026-05-04 11:17 | 53.90858 | -14.14210 | 34101 ft | 473 kts | 282° |
| 2026-05-04 11:19 | 53.95623 | -14.58177 | 34111 ft | 475 kts | 281° |
| 2026-05-04 11:19 | 53.96797 | -14.69243 | 34110 ft | 475 kts | 281° |
| 2026-05-04 11:20 | 53.97960 | -14.80323 | 34110 ft | 475 kts | 281° |
| 2026-05-04 11:20 | 53.99108 | -14.91338 | 34113 ft | 475 kts | 281° |
| 2026-05-04 11:22 | 54.06286 | -15.28086 | 34110 ft | 464 kts | 291° |
| 2026-05-04 11:22 | 54.07445 | -15.33234 | 34116 ft | 464 kts | 291° |
| 2026-05-04 11:23 | 54.09723 | -15.43478 | 34121 ft | 465 kts | 291° |
| 2026-05-04 11:25 | 54.17666 | -15.79697 | 34120 ft | 466 kts | 290° |
| 2026-05-04 11:25 | 54.19911 | -15.90045 | 34120 ft | 467 kts | 290° |
| 2026-05-04 11:27 | 54.29934 | -16.36898 | 34121 ft | 465 kts | 290° |
| 2026-05-04 11:28 | 54.32135 | -16.47337 | 34119 ft | 465 kts | 290° |
| 2026-05-04 11:28 | 54.34310 | -16.57701 | 34120 ft | 464 kts | 289° |
| 2026-05-04 11:29 | 54.36488 | -16.68120 | 34120 ft | 463 kts | 289° |
| 2026-05-04 11:29 | 54.38649 | -16.78528 | 34120 ft | 462 kts | 289° |
| 2026-05-04 11:33 | 54.53445 | -17.51282 | 34121 ft | 461 kts | 288° |
| 2026-05-04 11:33 | 54.55514 | -17.61677 | 34119 ft | 461 kts | 288° |
| 2026-05-04 11:34 | 54.57584 | -17.72133 | 34121 ft | 461 kts | 288° |
| 2026-05-04 11:34 | 54.59639 | -17.82553 | 34122 ft | 461 kts | 288° |
| 2026-05-04 11:35 | 54.61696 | -17.93046 | 34128 ft | 461 kts | 288° |
| 2026-05-04 11:35 | 54.63738 | -18.03532 | 34131 ft | 460 kts | 287° |
| 2026-05-04 11:36 | 54.65770 | -18.14014 | 34128 ft | 460 kts | 287° |
| 2026-05-04 11:36 | 54.67788 | -18.24480 | 34129 ft | 460 kts | 287° |
| 2026-05-04 11:37 | 54.69791 | -18.34924 | 34130 ft | 459 kts | 287° |
| 2026-05-04 11:37 | 54.71791 | -18.45419 | 34129 ft | 459 kts | 287° |
| 2026-05-04 11:38 | 54.73783 | -18.55918 | 34125 ft | 458 kts | 287° |
| 2026-05-04 11:38 | 54.75762 | -18.66417 | 34119 ft | 458 kts | 287° |
| 2026-05-04 11:39 | 54.77719 | -18.76856 | 34121 ft | 457 kts | 287° |
| 2026-05-04 11:41 | 54.84521 | -19.13580 | 34117 ft | 457 kts | 286° |
| 2026-05-04 11:41 | 54.86446 | -19.24122 | 34121 ft | 457 kts | 286° |
| 2026-05-04 11:42 | 54.88348 | -19.34584 | 34121 ft | 456 kts | 286° |
| 2026-05-04 11:42 | 54.90255 | -19.45119 | 34118 ft | 456 kts | 286° |
| 2026-05-04 11:43 | 54.91824 | -19.53853 | 34122 ft | 456 kts | 286° |
| 2026-05-04 11:43 | 54.93714 | -19.64415 | 34119 ft | 456 kts | 286° |
| 2026-05-04 11:44 | 54.95583 | -19.74916 | 34120 ft | 456 kts | 286° |
| 2026-05-04 11:44 | 54.97454 | -19.85492 | 34119 ft | 456 kts | 286° |
| 2026-05-04 11:45 | 54.99296 | -19.96067 | 34124 ft | 456 kts | 283° |
| 2026-05-04 11:45 | 55.00360 | -20.06875 | 34116 ft | 454 kts | 273° |
| 2026-05-04 11:46 | 55.00764 | -20.17872 | 34122 ft | 455 kts | 273° |
| 2026-05-04 11:46 | 55.01158 | -20.28833 | 34119 ft | 455 kts | 273° |
| 2026-05-04 11:47 | 55.01564 | -20.39830 | 34125 ft | 454 kts | 273° |
| 2026-05-04 11:47 | 55.01973 | -20.50846 | 34139 ft | 455 kts | 273° |
| 2026-05-04 11:48 | 55.02377 | -20.61840 | 34138 ft | 454 kts | 273° |
| 2026-05-04 11:48 | 55.02765 | -20.72803 | 34137 ft | 454 kts | 273° |
| 2026-05-04 11:49 | 55.03146 | -20.83827 | 34138 ft | 455 kts | 273° |
| 2026-05-04 11:49 | 55.03518 | -20.94837 | 34138 ft | 454 kts | 273° |
| 2026-05-04 11:50 | 55.03880 | -21.05845 | 34140 ft | 454 kts | 273° |
| 2026-05-04 11:50 | 55.04231 | -21.16799 | 34138 ft | 455 kts | 272° |
| 2026-05-04 11:51 | 55.04570 | -21.27832 | 34138 ft | 455 kts | 272° |
| 2026-05-04 11:51 | 55.04900 | -21.38786 | 34139 ft | 454 kts | 272° |
| 2026-05-04 11:52 | 55.05223 | -21.49807 | 34145 ft | 454 kts | 272° |
| 2026-05-04 11:52 | 55.05535 | -21.60834 | 34148 ft | 454 kts | 272° |
| 2026-05-04 11:53 | 55.05837 | -21.71868 | 34148 ft | 455 kts | 272° |
| 2026-05-04 11:53 | 55.06128 | -21.82863 | 34147 ft | 455 kts | 272° |
| 2026-05-04 11:55 | 55.07192 | -22.26875 | 34148 ft | 455 kts | 272° |
| 2026-05-04 11:56 | 55.07434 | -22.37904 | 34148 ft | 454 kts | 272° |
| 2026-05-04 11:56 | 55.07666 | -22.48935 | 34146 ft | 454 kts | 272° |
| 2026-05-04 11:57 | 55.07892 | -22.59975 | 34147 ft | 455 kts | 272° |
| 2026-05-04 11:57 | 55.08102 | -22.70957 | 34153 ft | 454 kts | 272° |
| 2026-05-04 11:58 | 55.08303 | -22.81988 | 34159 ft | 455 kts | 271° |
| 2026-05-04 11:58 | 55.08496 | -22.93036 | 34155 ft | 454 kts | 272° |
| 2026-05-04 11:59 | 55.08676 | -23.04008 | 34159 ft | 454 kts | 271° |
| 2026-05-04 11:59 | 55.08850 | -23.15055 | 34154 ft | 455 kts | 271° |
| 2026-05-04 12:00 | 55.09011 | -23.26109 | 34157 ft | 454 kts | 271° |
| 2026-05-04 12:00 | 55.09163 | -23.37077 | 34158 ft | 455 kts | 271° |
| 2026-05-04 12:01 | 55.09306 | -23.48130 | 34156 ft | 455 kts | 271° |
| 2026-05-04 12:02 | 55.09726 | -23.86766 | 34184 ft | 455 kts | 271° |
| 2026-05-04 12:03 | 55.09823 | -23.97831 | 34195 ft | 455 kts | 271° |
| 2026-05-04 12:03 | 55.09912 | -24.08832 | 34192 ft | 455 kts | 271° |
| 2026-05-04 12:04 | 55.09986 | -24.19893 | 34194 ft | 455 kts | 271° |
| 2026-05-04 12:04 | 55.10053 | -24.30890 | 34194 ft | 455 kts | 271° |
| 2026-05-04 12:05 | 55.10112 | -24.41971 | 34194 ft | 455 kts | 270° |
| 2026-05-04 12:05 | 55.10159 | -24.52958 | 34194 ft | 454 kts | 270° |
| 2026-05-04 12:06 | 55.10198 | -24.64006 | 34194 ft | 455 kts | 270° |
| 2026-05-04 12:06 | 55.10226 | -24.75029 | 34195 ft | 455 kts | 270° |
| 2026-05-04 12:07 | 55.10243 | -24.86120 | 34195 ft | 456 kts | 270° |
| 2026-05-04 12:07 | 55.10251 | -24.97204 | 34200 ft | 455 kts | 270° |
| 2026-05-04 12:08 | 55.10248 | -25.08177 | 34202 ft | 455 kts | 270° |
| 2026-05-04 12:08 | 55.10236 | -25.19306 | 34200 ft | 455 kts | 270° |
| 2026-05-04 12:09 | 55.10212 | -25.30290 | 34207 ft | 455 kts | 270° |
| 2026-05-04 12:09 | 55.10180 | -25.41374 | 34205 ft | 455 kts | 269° |
| 2026-05-04 12:10 | 55.10139 | -25.52436 | 34203 ft | 455 kts | 269° |
| 2026-05-04 12:10 | 55.10085 | -25.63520 | 34201 ft | 455 kts | 269° |
| 2026-05-04 12:11 | 55.10024 | -25.74512 | 34203 ft | 455 kts | 269° |
| 2026-05-04 12:11 | 55.09951 | -25.85608 | 34200 ft | 455 kts | 269° |
| 2026-05-04 12:12 | 55.09867 | -25.96623 | 34208 ft | 455 kts | 269° |
| 2026-05-04 12:12 | 55.09778 | -26.07687 | 34201 ft | 455 kts | 269° |
| 2026-05-04 12:14 | 55.09308 | -26.51756 | 34201 ft | 454 kts | 269° |
| 2026-05-04 12:15 | 55.09166 | -26.62813 | 34212 ft | 453 kts | 269° |
| 2026-05-04 12:15 | 55.09016 | -26.73673 | 34219 ft | 447 kts | 269° |
| 2026-05-04 12:16 | 55.08857 | -26.84546 | 34241 ft | 448 kts | 269° |
| 2026-05-04 12:16 | 55.08689 | -26.95378 | 34254 ft | 449 kts | 269° |
| 2026-05-04 12:17 | 55.08510 | -27.06278 | 34264 ft | 448 kts | 269° |
| 2026-05-04 12:17 | 55.08318 | -27.17179 | 34269 ft | 447 kts | 268° |
| 2026-05-04 12:18 | 55.08120 | -27.27973 | 34278 ft | 447 kts | 268° |
| 2026-05-04 12:18 | 55.07918 | -27.38853 | 34274 ft | 448 kts | 268° |
| 2026-05-04 12:19 | 55.07700 | -27.49673 | 34277 ft | 447 kts | 268° |
| 2026-05-04 12:19 | 55.07472 | -27.60551 | 34276 ft | 447 kts | 268° |
| 2026-05-04 12:20 | 55.07234 | -27.71404 | 34277 ft | 447 kts | 268° |
| 2026-05-04 12:20 | 55.06990 | -27.82190 | 34276 ft | 447 kts | 268° |
| 2026-05-04 12:21 | 55.06733 | -27.93061 | 34275 ft | 447 kts | 268° |
| 2026-05-04 12:21 | 55.06466 | -28.03912 | 34277 ft | 447 kts | 268° |
| 2026-05-04 12:22 | 55.06193 | -28.14696 | 34277 ft | 447 kts | 267° |
| 2026-05-04 12:22 | 55.05908 | -28.25554 | 34277 ft | 447 kts | 267° |
| 2026-05-04 12:23 | 55.05614 | -28.36402 | 34276 ft | 447 kts | 267° |
| 2026-05-04 12:23 | 55.05312 | -28.47200 | 34276 ft | 447 kts | 267° |
| 2026-05-04 12:24 | 55.04998 | -28.58057 | 34278 ft | 447 kts | 267° |
| 2026-05-04 12:24 | 55.04674 | -28.68906 | 34276 ft | 447 kts | 266° |
| 2026-05-04 12:25 | 55.04343 | -28.79691 | 34277 ft | 447 kts | 266° |
| 2026-05-04 12:25 | 55.04001 | -28.90532 | 34276 ft | 447 kts | 266° |
| 2026-05-04 12:26 | 55.03650 | -29.01334 | 34276 ft | 447 kts | 266° |
| 2026-05-04 12:26 | 55.03286 | -29.12198 | 34278 ft | 447 kts | 266° |
| 2026-05-04 12:27 | 55.02915 | -29.23036 | 34276 ft | 448 kts | 266° |
| 2026-05-04 12:27 | 55.02536 | -29.33825 | 34276 ft | 448 kts | 266° |
| 2026-05-04 12:28 | 55.02144 | -29.44661 | 34276 ft | 447 kts | 266° |
| 2026-05-04 12:28 | 55.01814 | -29.53663 | 34276 ft | 447 kts | 266° |
| 2026-05-04 12:29 | 55.01337 | -29.66259 | 34276 ft | 448 kts | 265° |
| 2026-05-04 12:29 | 55.00989 | -29.75276 | 34277 ft | 448 kts | 265° |
| 2026-05-04 12:30 | 55.00561 | -29.86124 | 34279 ft | 448 kts | 265° |
| 2026-05-04 12:30 | 55.00127 | -29.96970 | 34288 ft | 448 kts | 266° |
| 2026-05-04 12:31 | 55.00249 | -30.07756 | 34288 ft | 449 kts | 273° |
| 2026-05-04 12:31 | 55.00713 | -30.18632 | 34292 ft | 450 kts | 273° |
| 2026-05-04 12:32 | 55.01379 | -30.34925 | 34285 ft | 449 kts | 272° |
| 2026-05-04 12:33 | 55.01792 | -30.45757 | 34284 ft | 449 kts | 272° |
| 2026-05-04 12:33 | 55.02192 | -30.56649 | 34283 ft | 450 kts | 272° |
| 2026-05-04 12:34 | 55.02582 | -30.67561 | 34287 ft | 450 kts | 272° |
| 2026-05-04 12:34 | 55.02963 | -30.78391 | 34275 ft | 450 kts | 272° |
| 2026-05-04 12:35 | 55.03336 | -30.89304 | 34279 ft | 450 kts | 272° |
| 2026-05-04 12:35 | 55.03698 | -31.00171 | 34276 ft | 450 kts | 272° |
| 2026-05-04 12:36 | 55.04051 | -31.11081 | 34280 ft | 450 kts | 272° |
| 2026-05-04 12:36 | 55.04394 | -31.22015 | 34275 ft | 451 kts | 272° |
| 2026-05-04 12:37 | 55.04727 | -31.32879 | 34262 ft | 451 kts | 271° |
| 2026-05-04 12:37 | 55.05054 | -31.43812 | 34242 ft | 451 kts | 271° |
| 2026-05-04 12:38 | 55.05368 | -31.54762 | 34227 ft | 451 kts | 271° |
| 2026-05-04 12:38 | 55.05671 | -31.65681 | 34208 ft | 450 kts | 271° |
| 2026-05-04 12:39 | 55.05963 | -31.76534 | 34194 ft | 450 kts | 271° |
| 2026-05-04 12:39 | 55.06248 | -31.87470 | 34176 ft | 450 kts | 271° |
| 2026-05-04 12:40 | 55.06524 | -31.98411 | 34158 ft | 451 kts | 271° |
| 2026-05-04 12:40 | 55.06789 | -32.09290 | 34147 ft | 452 kts | 271° |
| 2026-05-04 12:41 | 55.07047 | -32.20285 | 34150 ft | 453 kts | 271° |
| 2026-05-04 12:41 | 55.07293 | -32.31227 | 34148 ft | 453 kts | 271° |
| 2026-05-04 12:42 | 55.07530 | -32.42259 | 34148 ft | 453 kts | 271° |
| 2026-05-04 12:42 | 55.07758 | -32.53204 | 34149 ft | 453 kts | 270° |
| 2026-05-04 12:43 | 55.07975 | -32.64218 | 34148 ft | 453 kts | 270° |
| 2026-05-04 12:43 | 55.08181 | -32.75155 | 34147 ft | 453 kts | 270° |
| 2026-05-04 12:44 | 55.08378 | -32.86202 | 34148 ft | 454 kts | 270° |
| 2026-05-04 12:44 | 55.08567 | -32.97242 | 34146 ft | 454 kts | 270° |
| 2026-05-04 12:45 | 55.08745 | -33.08209 | 34140 ft | 455 kts | 270° |
| 2026-05-04 12:45 | 55.08915 | -33.19284 | 34140 ft | 455 kts | 270° |
| 2026-05-04 12:46 | 55.09073 | -33.30320 | 34137 ft | 455 kts | 270° |
| 2026-05-04 12:46 | 55.09223 | -33.41402 | 34139 ft | 456 kts | 270° |
| 2026-05-04 12:47 | 55.09360 | -33.52416 | 34139 ft | 456 kts | 270° |
| 2026-05-04 12:47 | 55.09491 | -33.63517 | 34140 ft | 457 kts | 270° |
| 2026-05-04 12:48 | 55.09608 | -33.74634 | 34138 ft | 457 kts | 270° |
| 2026-05-04 12:48 | 55.09717 | -33.85692 | 34138 ft | 457 kts | 270° |
| 2026-05-04 12:49 | 55.09817 | -33.96812 | 34139 ft | 457 kts | 270° |
| 2026-05-04 12:49 | 55.09905 | -34.07863 | 34133 ft | 459 kts | 270° |
| 2026-05-04 12:50 | 55.09984 | -34.19039 | 34131 ft | 460 kts | 270° |
| 2026-05-04 12:50 | 55.10052 | -34.30224 | 34128 ft | 460 kts | 270° |
| 2026-05-04 12:51 | 55.10112 | -34.41355 | 34129 ft | 459 kts | 270° |
| 2026-05-04 12:51 | 55.10160 | -34.52530 | 34129 ft | 459 kts | 270° |
| 2026-05-04 12:52 | 55.10198 | -34.63696 | 34129 ft | 459 kts | 270° |
| 2026-05-04 12:52 | 55.10226 | -34.74823 | 34128 ft | 460 kts | 270° |
| 2026-05-04 12:53 | 55.10244 | -34.86030 | 34129 ft | 460 kts | 270° |
| 2026-05-04 12:53 | 55.10252 | -34.97151 | 34127 ft | 460 kts | 270° |
| 2026-05-04 12:54 | 55.10251 | -35.08363 | 34117 ft | 460 kts | 270° |
| 2026-05-04 12:54 | 55.10239 | -35.19501 | 34123 ft | 461 kts | 269° |
| 2026-05-04 12:55 | 55.10216 | -35.30732 | 34117 ft | 461 kts | 269° |
| 2026-05-04 12:55 | 55.10181 | -35.41953 | 34121 ft | 461 kts | 269° |
| 2026-05-04 12:56 | 55.10137 | -35.53101 | 34119 ft | 462 kts | 269° |
| 2026-05-04 12:56 | 55.10081 | -35.64352 | 34120 ft | 462 kts | 269° |
| 2026-05-04 12:57 | 55.10020 | -35.75533 | 34120 ft | 462 kts | 269° |
| 2026-05-04 12:57 | 55.09945 | -35.86798 | 34111 ft | 462 kts | 269° |
| 2026-05-04 12:58 | 55.09858 | -35.97976 | 34111 ft | 462 kts | 269° |
| 2026-05-04 12:58 | 55.09763 | -36.09228 | 34111 ft | 463 kts | 270° |
| 2026-05-04 12:59 | 55.09660 | -36.20405 | 34112 ft | 463 kts | 270° |
| 2026-05-04 12:59 | 55.09544 | -36.31652 | 34111 ft | 463 kts | 269° |
| 2026-05-04 13:00 | 55.09417 | -36.42907 | 34116 ft | 463 kts | 269° |
| 2026-05-04 13:00 | 55.09279 | -36.54177 | 34119 ft | 463 kts | 269° |
| 2026-05-04 13:01 | 55.09131 | -36.65364 | 34111 ft | 463 kts | 269° |
| 2026-05-04 13:01 | 55.08975 | -36.76627 | 34108 ft | 463 kts | 269° |
| 2026-05-04 13:02 | 55.08808 | -36.87808 | 34112 ft | 463 kts | 269° |
| 2026-05-04 13:02 | 55.08628 | -36.99078 | 34108 ft | 463 kts | 269° |
| 2026-05-04 13:03 | 55.08440 | -37.10320 | 34088 ft | 463 kts | 269° |
| 2026-05-04 13:03 | 55.08243 | -37.21505 | 34078 ft | 463 kts | 269° |
| 2026-05-04 13:04 | 55.08034 | -37.32743 | 34095 ft | 463 kts | 269° |
| 2026-05-04 13:04 | 55.07813 | -37.43994 | 34109 ft | 463 kts | 269° |
| 2026-05-04 13:05 | 55.07585 | -37.55170 | 34112 ft | 464 kts | 269° |
| 2026-05-04 13:05 | 55.07346 | -37.66429 | 34107 ft | 463 kts | 269° |
| 2026-05-04 13:06 | 55.07094 | -37.77677 | 34100 ft | 463 kts | 269° |
| 2026-05-04 13:06 | 55.06835 | -37.88891 | 34103 ft | 463 kts | 269° |
| 2026-05-04 13:07 | 55.06564 | -38.00060 | 34102 ft | 463 kts | 269° |
| 2026-05-04 13:07 | 55.06282 | -38.11300 | 34102 ft | 462 kts | 269° |
| 2026-05-04 13:08 | 55.05989 | -38.22519 | 34099 ft | 462 kts | 269° |
| 2026-05-04 13:08 | 55.05690 | -38.33677 | 34104 ft | 461 kts | 269° |
| 2026-05-04 13:09 | 55.05378 | -38.44864 | 34102 ft | 461 kts | 269° |
| 2026-05-04 13:09 | 55.05056 | -38.56001 | 34102 ft | 461 kts | 269° |
| 2026-05-04 13:10 | 55.04724 | -38.67192 | 34101 ft | 461 kts | 269° |
| 2026-05-04 13:10 | 55.04386 | -38.78286 | 34102 ft | 460 kts | 269° |
| 2026-05-04 13:11 | 55.04038 | -38.89448 | 34094 ft | 460 kts | 268° |
| 2026-05-04 13:11 | 55.03676 | -39.00565 | 34092 ft | 459 kts | 268° |
| 2026-05-04 13:12 | 55.03306 | -39.11630 | 34095 ft | 459 kts | 268° |
| 2026-05-04 13:12 | 55.02925 | -39.22759 | 34092 ft | 459 kts | 268° |
| 2026-05-04 13:13 | 55.02533 | -39.33880 | 34093 ft | 458 kts | 268° |
| 2026-05-04 13:13 | 55.02136 | -39.44897 | 34094 ft | 458 kts | 268° |
| 2026-05-04 13:14 | 55.01728 | -39.55993 | 34089 ft | 457 kts | 268° |
| 2026-05-04 13:14 | 55.01309 | -39.67013 | 34093 ft | 457 kts | 268° |
| 2026-05-04 13:15 | 55.00877 | -39.78116 | 34088 ft | 457 kts | 268° |
| 2026-05-04 13:15 | 55.00442 | -39.89111 | 34083 ft | 457 kts | 268° |
| 2026-05-04 13:16 | 55.00070 | -39.98320 | 34083 ft | 457 kts | 268° |
| 2026-05-04 13:16 | 54.99417 | -40.11128 | 34083 ft | 453 kts | 266° |
| 2026-05-04 13:17 | 54.98862 | -40.20201 | 34082 ft | 452 kts | 266° |
| 2026-05-04 13:17 | 54.98194 | -40.31051 | 34086 ft | 452 kts | 266° |
| 2026-05-04 13:18 | 54.97527 | -40.41968 | 34084 ft | 452 kts | 266° |
| 2026-05-04 13:18 | 54.96867 | -40.52839 | 34085 ft | 451 kts | 267° |
| 2026-05-04 13:19 | 54.96196 | -40.63715 | 34085 ft | 451 kts | 266° |
| 2026-05-04 13:19 | 54.95519 | -40.74515 | 34075 ft | 450 kts | 266° |
| 2026-05-04 13:20 | 54.94827 | -40.85374 | 34076 ft | 449 kts | 266° |
| 2026-05-04 13:20 | 54.94132 | -40.96112 | 34073 ft | 448 kts | 267° |
| 2026-05-04 13:21 | 54.93428 | -41.06893 | 34074 ft | 447 kts | 267° |
| 2026-05-04 13:21 | 54.92718 | -41.17576 | 34073 ft | 447 kts | 267° |
| 2026-05-04 13:22 | 54.91995 | -41.28318 | 34075 ft | 446 kts | 267° |
| 2026-05-04 13:22 | 54.91264 | -41.39024 | 34073 ft | 445 kts | 267° |
| 2026-05-04 13:23 | 54.90529 | -41.49657 | 34073 ft | 444 kts | 267° |
| 2026-05-04 13:23 | 54.89784 | -41.60312 | 34063 ft | 443 kts | 267° |
| 2026-05-04 13:24 | 54.89035 | -41.70893 | 34067 ft | 442 kts | 267° |
| 2026-05-04 13:24 | 54.88271 | -41.81526 | 34064 ft | 442 kts | 267° |
| 2026-05-04 13:25 | 54.87119 | -41.97343 | 34065 ft | 441 kts | 267° |
| 2026-05-04 13:25 | 54.86335 | -42.07903 | 34067 ft | 438 kts | 267° |
| 2026-05-04 13:26 | 54.85553 | -42.18303 | 34063 ft | 434 kts | 267° |
| 2026-05-04 13:26 | 54.84767 | -42.28696 | 34062 ft | 434 kts | 267° |
| 2026-05-04 13:27 | 54.83975 | -42.39055 | 34056 ft | 435 kts | 267° |
| 2026-05-04 13:27 | 54.83168 | -42.49472 | 34054 ft | 434 kts | 267° |
| 2026-05-04 13:28 | 54.82351 | -42.59856 | 34055 ft | 433 kts | 267° |
| 2026-05-04 13:28 | 54.81533 | -42.70164 | 34056 ft | 432 kts | 266° |
| 2026-05-04 13:29 | 54.80704 | -42.80500 | 34055 ft | 432 kts | 266° |
| 2026-05-04 13:29 | 54.79870 | -42.90767 | 34052 ft | 431 kts | 266° |
| 2026-05-04 13:30 | 54.79025 | -43.01076 | 34047 ft | 430 kts | 266° |
| 2026-05-04 13:30 | 54.78179 | -43.11292 | 34047 ft | 429 kts | 266° |
| 2026-05-04 13:31 | 54.77321 | -43.21555 | 34047 ft | 428 kts | 266° |
| 2026-05-04 13:31 | 54.76461 | -43.31714 | 34048 ft | 427 kts | 266° |
| 2026-05-04 13:32 | 54.75590 | -43.41908 | 34046 ft | 426 kts | 266° |
| 2026-05-04 13:32 | 54.74720 | -43.51988 | 34042 ft | 426 kts | 265° |
| 2026-05-04 13:33 | 54.73834 | -43.62143 | 34038 ft | 425 kts | 265° |
| 2026-05-04 13:33 | 54.72940 | -43.72271 | 34037 ft | 425 kts | 265° |
| 2026-05-04 13:34 | 54.72048 | -43.82298 | 34038 ft | 423 kts | 265° |
| 2026-05-04 13:34 | 54.71143 | -43.92367 | 34031 ft | 423 kts | 265° |
| 2026-05-04 13:35 | 54.69778 | -44.07409 | 34033 ft | 422 kts | 265° |
| 2026-05-04 13:36 | 54.68852 | -44.17414 | 34024 ft | 420 kts | 264° |
| 2026-05-04 13:36 | 54.67927 | -44.27418 | 34026 ft | 421 kts | 264° |
| 2026-05-04 13:37 | 54.66990 | -44.37422 | 34026 ft | 422 kts | 264° |
| 2026-05-04 13:37 | 54.66050 | -44.47383 | 34029 ft | 422 kts | 264° |
| 2026-05-04 13:38 | 54.65091 | -44.57422 | 34027 ft | 422 kts | 264° |
| 2026-05-04 13:38 | 54.64130 | -44.67445 | 34027 ft | 423 kts | 264° |
| 2026-05-04 13:39 | 54.63155 | -44.77440 | 34020 ft | 424 kts | 263° |
| 2026-05-04 13:39 | 54.62163 | -44.87514 | 34021 ft | 424 kts | 263° |
| 2026-05-04 13:40 | 54.61176 | -44.97489 | 34019 ft | 424 kts | 263° |
| 2026-05-04 13:40 | 54.60171 | -45.07550 | 34022 ft | 426 kts | 263° |
| 2026-05-04 13:41 | 54.59155 | -45.17651 | 34009 ft | 426 kts | 262° |
| 2026-05-04 13:41 | 54.58136 | -45.27688 | 34006 ft | 427 kts | 262° |
| 2026-05-04 13:42 | 54.56581 | -45.42830 | 34010 ft | 428 kts | 262° |
| 2026-05-04 13:42 | 54.55529 | -45.52960 | 34005 ft | 429 kts | 261° |
| 2026-05-04 13:43 | 54.54474 | -45.63038 | 33991 ft | 429 kts | 261° |
| 2026-05-04 13:43 | 54.53411 | -45.73100 | 33979 ft | 429 kts | 261° |
| 2026-05-04 13:44 | 54.52331 | -45.83242 | 33970 ft | 429 kts | 261° |
| 2026-05-04 13:44 | 54.51247 | -45.93360 | 33968 ft | 429 kts | 261° |
| 2026-05-04 13:45 | 54.50158 | -46.03430 | 33962 ft | 430 kts | 260° |
| 2026-05-04 13:45 | 54.49049 | -46.13569 | 33963 ft | 431 kts | 259° |
| 2026-05-04 13:46 | 54.47940 | -46.23643 | 33961 ft | 431 kts | 259° |
| 2026-05-04 13:46 | 54.46818 | -46.33768 | 33965 ft | 431 kts | 259° |
| 2026-05-04 13:47 | 54.45683 | -46.43916 | 33961 ft | 432 kts | 259° |
| 2026-05-04 13:47 | 54.44546 | -46.54005 | 33951 ft | 432 kts | 259° |
| 2026-05-04 13:48 | 54.43393 | -46.64147 | 33951 ft | 431 kts | 259° |
| 2026-05-04 13:48 | 54.42234 | -46.74259 | 33951 ft | 432 kts | 259° |
| 2026-05-04 13:49 | 54.41071 | -46.84336 | 33962 ft | 432 kts | 258° |
| 2026-05-04 13:49 | 54.39890 | -46.94500 | 33945 ft | 433 kts | 258° |
| 2026-05-04 13:50 | 54.38707 | -47.04596 | 33941 ft | 433 kts | 258° |
| 2026-05-04 13:50 | 54.37508 | -47.14738 | 33939 ft | 433 kts | 258° |
| 2026-05-04 13:51 | 54.36296 | -47.24913 | 33944 ft | 435 kts | 257° |
| 2026-05-04 13:51 | 54.35084 | -47.35021 | 33947 ft | 435 kts | 257° |
| 2026-05-04 13:52 | 54.33237 | -47.50288 | 33935 ft | 436 kts | 256° |
| 2026-05-04 13:53 | 54.31991 | -47.60467 | 33937 ft | 436 kts | 256° |
| 2026-05-04 13:53 | 54.30746 | -47.70584 | 33936 ft | 436 kts | 256° |
| 2026-05-04 13:54 | 54.28847 | -47.85859 | 33931 ft | 437 kts | 255° |
| 2026-05-04 13:55 | 54.26925 | -48.01151 | 33912 ft | 437 kts | 255° |
| 2026-05-04 13:55 | 54.24995 | -48.16343 | 33888 ft | 437 kts | 255° |
| 2026-05-04 13:56 | 54.23692 | -48.26523 | 33867 ft | 438 kts | 255° |
| 2026-05-04 13:57 | 54.21722 | -48.41739 | 33842 ft | 438 kts | 255° |
| 2026-05-04 13:58 | 54.19063 | -48.62048 | 33807 ft | 439 kts | 255° |
| 2026-05-04 13:58 | 54.17033 | -48.77356 | 33767 ft | 440 kts | 254° |
| 2026-05-04 13:59 | 54.15675 | -48.87514 | 33764 ft | 442 kts | 254° |
| 2026-05-04 14:00 | 54.13608 | -49.02831 | 33735 ft | 443 kts | 254° |
| 2026-05-04 14:00 | 54.11507 | -49.18240 | 33710 ft | 445 kts | 253° |
| 2026-05-04 14:01 | 54.10092 | -49.28537 | 33695 ft | 446 kts | 253° |
| 2026-05-04 14:02 | 54.07951 | -49.43975 | 33665 ft | 448 kts | 253° |
| 2026-05-04 14:02 | 54.06749 | -49.52580 | 33648 ft | 449 kts | 252° |
| 2026-05-04 14:03 | 54.05291 | -49.62941 | 33634 ft | 450 kts | 252° |
| 2026-05-04 14:03 | 54.03821 | -49.73320 | 33614 ft | 450 kts | 252° |
| 2026-05-04 14:04 | 54.01610 | -49.88821 | 33592 ft | 451 kts | 252° |
| 2026-05-04 14:04 | 54.00079 | -49.99196 | 33589 ft | 450 kts | 249° |
| 2026-05-04 14:05 | 53.96678 | -50.13934 | 33582 ft | 447 kts | 243° |
| 2026-05-04 14:06 | 53.94275 | -50.23691 | 33576 ft | 447 kts | 243° |
| 2026-05-04 14:06 | 53.91893 | -50.33416 | 33570 ft | 447 kts | 243° |
| 2026-05-04 14:07 | 53.89518 | -50.43117 | 33568 ft | 447 kts | 243° |
| 2026-05-04 14:07 | 53.87119 | -50.52875 | 33561 ft | 447 kts | 243° |
| 2026-05-04 14:08 | 53.84728 | -50.62562 | 33560 ft | 448 kts | 243° |
| 2026-05-04 14:08 | 53.82308 | -50.72323 | 33547 ft | 448 kts | 243° |
| 2026-05-04 14:09 | 53.78671 | -50.86919 | 33522 ft | 449 kts | 242° |
| 2026-05-04 14:10 | 53.75019 | -51.01472 | 33497 ft | 449 kts | 242° |
| 2026-05-04 14:10 | 53.72560 | -51.11213 | 33481 ft | 450 kts | 242° |
| 2026-05-04 14:11 | 53.70107 | -51.20884 | 33478 ft | 450 kts | 242° |
| 2026-05-04 14:11 | 53.66391 | -51.35464 | 33469 ft | 451 kts | 241° |
| 2026-05-04 14:12 | 53.63898 | -51.45196 | 33469 ft | 452 kts | 241° |
| 2026-05-04 14:13 | 53.60145 | -51.59752 | 33471 ft | 453 kts | 241° |
| 2026-05-04 14:13 | 53.57639 | -51.69427 | 33457 ft | 453 kts | 240° |
| 2026-05-04 14:14 | 53.55112 | -51.79146 | 33459 ft | 453 kts | 240° |
| 2026-05-04 14:14 | 53.51284 | -51.93779 | 33855 ft | 456 kts | 240° |
| 2026-05-04 14:15 | 53.48746 | -52.03434 | 34675 ft | 451 kts | 240° |
| 2026-05-04 14:15 | 53.46206 | -52.13064 | 35346 ft | 450 kts | 240° |
| 2026-05-04 14:16 | 53.42385 | -52.27452 | 35426 ft | 451 kts | 240° |
| 2026-05-04 14:17 | 53.38556 | -52.41795 | 35432 ft | 450 kts | 239° |
| 2026-05-04 14:18 | 53.34710 | -52.56092 | 35435 ft | 449 kts | 239° |
| 2026-05-04 14:19 | 53.29557 | -52.75115 | 35421 ft | 450 kts | 239° |
| 2026-05-04 14:19 | 53.26959 | -52.84653 | 35422 ft | 450 kts | 238° |
| 2026-05-04 14:20 | 53.24345 | -52.94192 | 35423 ft | 451 kts | 238° |
| 2026-05-04 14:20 | 53.21740 | -53.03685 | 35421 ft | 452 kts | 238° |
| 2026-05-04 14:21 | 53.17805 | -53.17935 | 35407 ft | 452 kts | 238° |
| 2026-05-04 14:21 | 53.15160 | -53.27470 | 35410 ft | 452 kts | 238° |
| 2026-05-04 14:22 | 53.12502 | -53.36988 | 35401 ft | 453 kts | 238° |
| 2026-05-04 14:22 | 53.09840 | -53.46505 | 35403 ft | 453 kts | 237° |
| 2026-05-04 14:23 | 53.05845 | -53.60717 | 35402 ft | 453 kts | 237° |
| 2026-05-04 14:24 | 53.03170 | -53.70178 | 35399 ft | 454 kts | 237° |
| 2026-05-04 14:24 | 53.00469 | -53.79688 | 35393 ft | 454 kts | 237° |
| 2026-05-04 14:25 | 52.97763 | -53.89184 | 35394 ft | 454 kts | 237° |
| 2026-05-04 14:25 | 52.93700 | -54.03368 | 35394 ft | 455 kts | 236° |
| 2026-05-04 14:26 | 52.90974 | -54.12830 | 35395 ft | 459 kts | 236° |
| 2026-05-04 14:26 | 52.88206 | -54.22403 | 35383 ft | 460 kts | 236° |
| 2026-05-04 14:27 | 52.85426 | -54.31984 | 35383 ft | 460 kts | 236° |
| 2026-05-04 14:27 | 52.82668 | -54.41452 | 35384 ft | 459 kts | 236° |
| 2026-05-04 14:28 | 52.79874 | -54.50997 | 35385 ft | 460 kts | 235° |
| 2026-05-04 14:28 | 52.77073 | -54.60533 | 35377 ft | 461 kts | 235° |
| 2026-05-04 14:29 | 52.71461 | -54.79526 | 35362 ft | 461 kts | 235° |
| 2026-05-04 14:30 | 52.68625 | -54.89065 | 35365 ft | 462 kts | 235° |
| 2026-05-04 14:31 | 52.64377 | -55.03282 | 35347 ft | 463 kts | 235° |
| 2026-05-04 14:32 | 52.58633 | -55.22369 | 35353 ft | 466 kts | 234° |
| 2026-05-04 14:32 | 52.55757 | -55.31875 | 35356 ft | 467 kts | 234° |
| 2026-05-04 14:33 | 52.52849 | -55.41447 | 35352 ft | 467 kts | 234° |
| 2026-05-04 14:33 | 52.49949 | -55.50962 | 35345 ft | 469 kts | 234° |
| 2026-05-04 14:34 | 52.47012 | -55.60543 | 35342 ft | 470 kts | 234° |
| 2026-05-04 14:34 | 52.44068 | -55.70122 | 35351 ft | 470 kts | 234° |
| 2026-05-04 14:35 | 52.41112 | -55.79707 | 35343 ft | 471 kts | 234° |
| 2026-05-04 14:35 | 52.38586 | -55.89674 | 35361 ft | 482 kts | 242° |
| 2026-05-04 14:36 | 52.36461 | -56.00108 | 35346 ft | 483 kts | 242° |
| 2026-05-04 14:36 | 52.34334 | -56.10583 | 35348 ft | 484 kts | 242° |
| 2026-05-04 14:37 | 52.32187 | -56.20962 | 35349 ft | 484 kts | 242° |
| 2026-05-04 14:37 | 52.30001 | -56.31384 | 35342 ft | 484 kts | 242° |
| 2026-05-04 14:38 | 52.27822 | -56.41720 | 35352 ft | 483 kts | 242° |
| 2026-05-04 14:38 | 52.25619 | -56.52107 | 35340 ft | 483 kts | 242° |
| 2026-05-04 14:39 | 52.23416 | -56.62449 | 35332 ft | 483 kts | 242° |
| 2026-05-04 14:39 | 52.21195 | -56.72822 | 35327 ft | 484 kts | 242° |
| 2026-05-04 14:40 | 52.17843 | -56.88371 | 35320 ft | 486 kts | 242° |
| 2026-05-04 14:40 | 52.15587 | -56.98783 | 35316 ft | 486 kts | 242° |
| 2026-05-04 14:41 | 52.13333 | -57.09123 | 35309 ft | 487 kts | 242° |
| 2026-05-04 14:42 | 52.08766 | -57.29906 | 35299 ft | 490 kts | 242° |
| 2026-05-04 14:42 | 52.06455 | -57.40352 | 35302 ft | 491 kts | 242° |
| 2026-05-04 14:43 | 52.04128 | -57.50838 | 35287 ft | 491 kts | 242° |
| 2026-05-04 14:43 | 52.01809 | -57.61218 | 35285 ft | 491 kts | 242° |
| 2026-05-04 14:44 | 51.99460 | -57.71670 | 35291 ft | 492 kts | 241° |
| 2026-05-04 14:44 | 51.97112 | -57.82067 | 35289 ft | 494 kts | 241° |
| 2026-05-04 14:45 | 51.94738 | -57.92534 | 35293 ft | 494 kts | 241° |
| 2026-05-04 14:45 | 51.92364 | -58.02952 | 35295 ft | 493 kts | 241° |
| 2026-05-04 14:46 | 51.89973 | -58.13388 | 35302 ft | 493 kts | 241° |
| 2026-05-04 14:46 | 51.87587 | -58.23752 | 35300 ft | 493 kts | 241° |
| 2026-05-04 14:47 | 51.85178 | -58.34172 | 35298 ft | 494 kts | 241° |
| 2026-05-04 14:47 | 51.82759 | -58.44578 | 35302 ft | 493 kts | 241° |
| 2026-05-04 14:48 | 51.80347 | -58.54902 | 35313 ft | 493 kts | 241° |
| 2026-05-04 14:48 | 51.77908 | -58.65299 | 35310 ft | 494 kts | 241° |
| 2026-05-04 14:49 | 51.75473 | -58.75609 | 35311 ft | 494 kts | 241° |
| 2026-05-04 14:49 | 51.73411 | -58.84306 | 35317 ft | 495 kts | 242° |
| 2026-05-04 14:50 | 51.70955 | -58.94634 | 35319 ft | 495 kts | 242° |
| 2026-05-04 14:50 | 51.68474 | -59.05016 | 35316 ft | 496 kts | 242° |
| 2026-05-04 14:51 | 51.65995 | -59.15337 | 35320 ft | 496 kts | 242° |
| 2026-05-04 14:51 | 51.63483 | -59.25738 | 35317 ft | 497 kts | 242° |
| 2026-05-04 14:52 | 51.60982 | -59.36055 | 35326 ft | 497 kts | 242° |
| 2026-05-04 14:52 | 51.58448 | -59.46459 | 35330 ft | 498 kts | 242° |
| 2026-05-04 14:53 | 51.55922 | -59.56777 | 35327 ft | 498 kts | 242° |
| 2026-05-04 14:53 | 51.53372 | -59.67138 | 35329 ft | 499 kts | 242° |
| 2026-05-04 14:54 | 51.50809 | -59.77516 | 35323 ft | 499 kts | 242° |
| 2026-05-04 14:54 | 51.48250 | -59.87818 | 35327 ft | 499 kts | 241° |
| 2026-05-04 14:55 | 51.45662 | -59.98192 | 35315 ft | 499 kts | 241° |
| 2026-05-04 14:55 | 51.43069 | -60.08541 | 35298 ft | 499 kts | 242° |
| 2026-05-04 14:56 | 51.40478 | -60.18832 | 35294 ft | 499 kts | 242° |
| 2026-05-04 14:56 | 51.37860 | -60.29180 | 35287 ft | 500 kts | 242° |
| 2026-05-04 14:57 | 51.35257 | -60.39420 | 35277 ft | 499 kts | 242° |
| 2026-05-04 14:57 | 51.32637 | -60.49686 | 35271 ft | 499 kts | 242° |
| 2026-05-04 14:58 | 51.30006 | -60.59957 | 35292 ft | 499 kts | 242° |
| 2026-05-04 14:58 | 51.27353 | -60.70252 | 35306 ft | 499 kts | 242° |
| 2026-05-04 14:59 | 51.24713 | -60.80448 | 35296 ft | 500 kts | 242° |
| 2026-05-04 15:00 | 51.20706 | -60.95843 | 35283 ft | 500 kts | 242° |
| 2026-05-04 15:00 | 51.18038 | -61.06037 | 35288 ft | 500 kts | 242° |
| 2026-05-04 15:01 | 51.13993 | -61.21398 | 35279 ft | 500 kts | 242° |
| 2026-05-04 15:01 | 51.11289 | -61.31618 | 35271 ft | 501 kts | 242° |
| 2026-05-04 15:02 | 51.08592 | -61.41772 | 35272 ft | 501 kts | 242° |
| 2026-05-04 15:02 | 51.05862 | -61.51997 | 35259 ft | 501 kts | 242° |
| 2026-05-04 15:03 | 51.03125 | -61.62200 | 35271 ft | 501 kts | 242° |
| 2026-05-04 15:03 | 51.00386 | -61.72367 | 35246 ft | 500 kts | 242° |
| 2026-05-04 15:04 | 50.97656 | -61.82463 | 35247 ft | 500 kts | 242° |
| 2026-05-04 15:04 | 50.94898 | -61.92605 | 35262 ft | 500 kts | 242° |
| 2026-05-04 15:05 | 50.92150 | -62.02675 | 35273 ft | 500 kts | 242° |
| 2026-05-04 15:05 | 50.89367 | -62.12825 | 35267 ft | 500 kts | 242° |
| 2026-05-04 15:06 | 50.86597 | -62.22878 | 35263 ft | 500 kts | 242° |
| 2026-05-04 15:07 | 50.82422 | -62.37970 | 35270 ft | 499 kts | 242° |
| 2026-05-04 15:07 | 50.79621 | -62.48034 | 35265 ft | 499 kts | 242° |
| 2026-05-04 15:08 | 50.76813 | -62.58083 | 35272 ft | 499 kts | 242° |
| 2026-05-04 15:08 | 50.74008 | -62.68084 | 35280 ft | 499 kts | 242° |
| 2026-05-04 15:09 | 50.71193 | -62.78056 | 35277 ft | 498 kts | 242° |
| 2026-05-04 15:09 | 50.68368 | -62.88035 | 35288 ft | 498 kts | 242° |
| 2026-05-04 15:10 | 50.64114 | -63.02991 | 35290 ft | 497 kts | 242° |
| 2026-05-04 15:11 | 50.59860 | -63.17845 | 35299 ft | 497 kts | 242° |
| 2026-05-04 15:11 | 50.57005 | -63.27755 | 35306 ft | 496 kts | 242° |
| 2026-05-04 15:12 | 50.54168 | -63.37573 | 35310 ft | 495 kts | 242° |
| 2026-05-04 15:12 | 50.51313 | -63.47416 | 35310 ft | 494 kts | 243° |
| 2026-05-04 15:13 | 50.48446 | -63.57254 | 35317 ft | 493 kts | 243° |
| 2026-05-04 15:13 | 50.45581 | -63.67045 | 35320 ft | 493 kts | 243° |
| 2026-05-04 15:14 | 50.42724 | -63.76764 | 35320 ft | 492 kts | 243° |
| 2026-05-04 15:14 | 50.39849 | -63.86514 | 35318 ft | 491 kts | 243° |
| 2026-05-04 15:15 | 50.36974 | -63.96219 | 35322 ft | 491 kts | 243° |
| 2026-05-04 15:15 | 50.34085 | -64.05921 | 35318 ft | 491 kts | 244° |
| 2026-05-04 15:16 | 50.29755 | -64.20413 | 35326 ft | 491 kts | 244° |
| 2026-05-04 15:17 | 50.25406 | -64.34877 | 35327 ft | 491 kts | 244° |
| 2026-05-04 15:17 | 50.21034 | -64.49333 | 35329 ft | 491 kts | 243° |
| 2026-05-04 15:18 | 50.18120 | -64.58924 | 35336 ft | 491 kts | 243° |
| 2026-05-04 15:19 | 50.13705 | -64.73370 | 35367 ft | 490 kts | 243° |
| 2026-05-04 15:19 | 50.09298 | -64.87716 | 35388 ft | 491 kts | 243° |
| 2026-05-04 15:20 | 50.06340 | -64.97297 | 35404 ft | 491 kts | 243° |
| 2026-05-04 15:20 | 50.03369 | -65.06885 | 35419 ft | 490 kts | 243° |
| 2026-05-04 15:21 | 50.00412 | -65.16385 | 35428 ft | 490 kts | 243° |
| 2026-05-04 15:22 | 49.95971 | -65.30587 | 35444 ft | 485 kts | 243° |
| 2026-05-04 15:22 | 49.91549 | -65.44646 | 35458 ft | 484 kts | 243° |
| 2026-05-04 15:23 | 49.88584 | -65.54036 | 35462 ft | 485 kts | 243° |
| 2026-05-04 15:23 | 49.85595 | -65.63455 | 35468 ft | 485 kts | 243° |
| 2026-05-04 15:24 | 49.79622 | -65.82178 | 35473 ft | 486 kts | 243° |
| 2026-05-04 15:25 | 49.76617 | -65.91552 | 35480 ft | 486 kts | 243° |
| 2026-05-04 15:26 | 49.72102 | -66.05561 | 35485 ft | 486 kts | 243° |
| 2026-05-04 15:26 | 49.67582 | -66.19508 | 35482 ft | 485 kts | 243° |
| 2026-05-04 15:27 | 49.63030 | -66.33484 | 35490 ft | 484 kts | 243° |
| 2026-05-04 15:28 | 49.58483 | -66.47350 | 35513 ft | 483 kts | 243° |
| 2026-05-04 15:29 | 49.53943 | -66.61138 | 35533 ft | 482 kts | 242° |
| 2026-05-04 15:30 | 49.43271 | -66.93225 | 35555 ft | 480 kts | 242° |
| 2026-05-04 15:31 | 49.38703 | -67.06853 | 35564 ft | 479 kts | 242° |